sensor_id;sensor_type;location;lat;lon;timestamp;temperature;humidity
73939;DHT22;62291;47.554;8.504;2023-04-03T00:00:17;6.70;99.90
73939;DHT22;62291;47.554;8.504;2023-04-03T00:02:43;6.70;99.90
73939;DHT22;62291;47.554;8.504;2023-04-03T00:05:09;6.70;99.90
73939;DHT22;62291;47.554;8.504;2023-04-03T00:07:34;6.80;99.90
73939;DHT22;62291;47.554;8.504;2023-04-03T00:10:00;6.70;99.90
73939;DHT22;62291;47.554;8.504;2023-04-03T00:12:25;6.60;99.90
73939;DHT22;62291;47.554;8.504;2023-04-03T00:14:51;6.60;99.90
73939;DHT22;62291;47.554;8.504;2023-04-03T00:17:16;6.60;99.90
73939;DHT22;62291;47.554;8.504;2023-04-03T00:19:42;6.50;99.90
73939;DHT22;62291;47.554;8.504;2023-04-03T00:22:07;6.50;99.90
73939;DHT22;62291;47.554;8.504;2023-04-03T00:24:33;6.50;99.90
73939;DHT22;62291;47.554;8.504;2023-04-03T00:27:00;6.50;99.90
73939;DHT22;62291;47.554;8.504;2023-04-03T00:29:25;6.50;99.90
73939;DHT22;62291;47.554;8.504;2023-04-03T00:31:51;6.40;99.90
73939;DHT22;62291;47.554;8.504;2023-04-03T00:34:16;6.40;99.90
73939;DHT22;62291;47.554;8.504;2023-04-03T00:36:42;6.30;99.90
73939;DHT22;62291;47.554;8.504;2023-04-03T00:39:07;6.30;99.90
73939;DHT22;62291;47.554;8.504;2023-04-03T00:41:33;6.20;99.90
73939;DHT22;62291;47.554;8.504;2023-04-03T00:43:58;6.10;99.90
73939;DHT22;62291;47.554;8.504;2023-04-03T00:46:24;6.10;99.90
73939;DHT22;62291;47.554;8.504;2023-04-03T00:48:49;6.00;99.90
73939;DHT22;62291;47.554;8.504;2023-04-03T00:51:22;6.00;99.90
73939;DHT22;62291;47.554;8.504;2023-04-03T00:53:50;6.00;99.90
73939;DHT22;62291;47.554;8.504;2023-04-03T00:56:17;6.00;99.90
73939;DHT22;62291;47.554;8.504;2023-04-03T00:58:49;6.00;99.90
73939;DHT22;62291;47.554;8.504;2023-04-03T01:01:16;6.00;99.90
73939;DHT22;62291;47.554;8.504;2023-04-03T01:03:42;6.00;99.90
73939;DHT22;62291;47.554;8.504;2023-04-03T01:06:08;5.90;99.90
73939;DHT22;62291;47.554;8.504;2023-04-03T01:08:33;5.90;99.90
73939;DHT22;62291;47.554;8.504;2023-04-03T01:11:00;5.90;99.90
73939;DHT22;62291;47.554;8.504;2023-04-03T01:13:30;5.80;99.90
73939;DHT22;62291;47.554;8.504;2023-04-03T01:15:56;5.80;99.90
73939;DHT22;62291;47.554;8.504;2023-04-03T01:18:22;5.70;99.90
73939;DHT22;62291;47.554;8.504;2023-04-03T01:25:56;5.30;99.90
73939;DHT22;62291;47.554;8.504;2023-04-03T01:28:27;5.20;99.90
73939;DHT22;62291;47.554;8.504;2023-04-03T01:31:05;5.20;99.90
73939;DHT22;62291;47.554;8.504;2023-04-03T01:33:33;5.20;99.90
73939;DHT22;62291;47.554;8.504;2023-04-03T01:36:00;5.20;99.90
73939;DHT22;62291;47.554;8.504;2023-04-03T01:38:25;5.20;99.90
73939;DHT22;62291;47.554;8.504;2023-04-03T01:40:51;5.10;99.90
73939;DHT22;62291;47.554;8.504;2023-04-03T01:43:16;5.00;99.90
73939;DHT22;62291;47.554;8.504;2023-04-03T01:45:42;5.00;99.90
73939;DHT22;62291;47.554;8.504;2023-04-03T01:48:08;4.90;99.90
73939;DHT22;62291;47.554;8.504;2023-04-03T01:50:33;4.90;99.90
73939;DHT22;62291;47.554;8.504;2023-04-03T01:52:59;4.80;99.90
73939;DHT22;62291;47.554;8.504;2023-04-03T01:55:24;4.80;99.90
73939;DHT22;62291;47.554;8.504;2023-04-03T01:57:50;4.70;99.90
73939;DHT22;62291;47.554;8.504;2023-04-03T02:00:16;4.60;99.90
73939;DHT22;62291;47.554;8.504;2023-04-03T02:02:41;4.60;99.90
73939;DHT22;62291;47.554;8.504;2023-04-03T02:05:07;4.60;99.90
73939;DHT22;62291;47.554;8.504;2023-04-03T02:07:33;4.60;99.90
73939;DHT22;62291;47.554;8.504;2023-04-03T02:09:58;4.60;99.90
73939;DHT22;62291;47.554;8.504;2023-04-03T02:12:24;4.60;99.90
73939;DHT22;62291;47.554;8.504;2023-04-03T02:14:49;4.70;99.90
73939;DHT22;62291;47.554;8.504;2023-04-03T02:17:15;4.70;99.90
73939;DHT22;62291;47.554;8.504;2023-04-03T02:19:40;4.70;99.90
73939;DHT22;62291;47.554;8.504;2023-04-03T02:22:06;4.60;99.90
73939;DHT22;62291;47.554;8.504;2023-04-03T02:24:31;4.60;99.90
73939;DHT22;62291;47.554;8.504;2023-04-03T02:26:57;4.60;99.90
73939;DHT22;62291;47.554;8.504;2023-04-03T02:29:23;4.50;99.90
73939;DHT22;62291;47.554;8.504;2023-04-03T02:31:49;4.50;99.90
73939;DHT22;62291;47.554;8.504;2023-04-03T02:34:14;4.50;99.90
73939;DHT22;62291;47.554;8.504;2023-04-03T02:36:40;4.50;99.90
73939;DHT22;62291;47.554;8.504;2023-04-03T02:39:05;4.50;99.90
73939;DHT22;62291;47.554;8.504;2023-04-03T02:41:31;4.50;99.90
73939;DHT22;62291;47.554;8.504;2023-04-03T02:44:03;4.50;99.90
73939;DHT22;62291;47.554;8.504;2023-04-03T02:46:29;4.40;99.90
73939;DHT22;62291;47.554;8.504;2023-04-03T02:48:54;4.40;99.90
73939;DHT22;62291;47.554;8.504;2023-04-03T02:51:20;4.40;99.90
73939;DHT22;62291;47.554;8.504;2023-04-03T02:53:46;4.40;99.90
73939;DHT22;62291;47.554;8.504;2023-04-03T02:56:11;4.50;99.90
73939;DHT22;62291;47.554;8.504;2023-04-03T02:58:37;4.50;99.90
73939;DHT22;62291;47.554;8.504;2023-04-03T03:01:03;4.50;99.90
73939;DHT22;62291;47.554;8.504;2023-04-03T03:03:28;4.50;99.90
73939;DHT22;62291;47.554;8.504;2023-04-03T03:06:27;4.50;99.90
73939;DHT22;62291;47.554;8.504;2023-04-03T03:08:45;4.50;99.90
73939;DHT22;62291;47.554;8.504;2023-04-03T03:11:11;4.60;99.90
73939;DHT22;62291;47.554;8.504;2023-04-03T03:13:36;4.60;99.90
73939;DHT22;62291;47.554;8.504;2023-04-03T03:16:02;4.60;99.90
73939;DHT22;62291;47.554;8.504;2023-04-03T03:18:28;4.60;99.90
73939;DHT22;62291;47.554;8.504;2023-04-03T03:20:54;4.60;99.90
73939;DHT22;62291;47.554;8.504;2023-04-03T03:23:20;4.60;99.90
73939;DHT22;62291;47.554;8.504;2023-04-03T03:25:46;4.60;99.90
73939;DHT22;62291;47.554;8.504;2023-04-03T03:28:12;4.60;99.90
73939;DHT22;62291;47.554;8.504;2023-04-03T03:30:38;4.60;99.90
73939;DHT22;62291;47.554;8.504;2023-04-03T03:33:03;4.60;99.90
73939;DHT22;62291;47.554;8.504;2023-04-03T03:35:29;4.70;99.90
73939;DHT22;62291;47.554;8.504;2023-04-03T03:37:54;4.70;99.90
73939;DHT22;62291;47.554;8.504;2023-04-03T03:40:20;4.70;99.90
73939;DHT22;62291;47.554;8.504;2023-04-03T03:42:45;4.70;99.90
73939;DHT22;62291;47.554;8.504;2023-04-03T03:45:11;4.80;99.90
73939;DHT22;62291;47.554;8.504;2023-04-03T03:47:36;4.90;99.90
73939;DHT22;62291;47.554;8.504;2023-04-03T03:50:02;4.90;99.90
73939;DHT22;62291;47.554;8.504;2023-04-03T03:52:28;4.90;99.90
73939;DHT22;62291;47.554;8.504;2023-04-03T03:54:55;4.90;99.90
73939;DHT22;62291;47.554;8.504;2023-04-03T03:57:21;4.90;99.90
73939;DHT22;62291;47.554;8.504;2023-04-03T03:59:46;4.90;99.90
73939;DHT22;62291;47.554;8.504;2023-04-03T04:02:13;4.90;99.90
73939;DHT22;62291;47.554;8.504;2023-04-03T04:04:39;4.80;99.90
73939;DHT22;62291;47.554;8.504;2023-04-03T04:07:04;4.90;99.90
73939;DHT22;62291;47.554;8.504;2023-04-03T04:09:30;4.80;99.90
73939;DHT22;62291;47.554;8.504;2023-04-03T04:11:56;4.70;99.90
73939;DHT22;62291;47.554;8.504;2023-04-03T04:14:21;4.70;99.90
73939;DHT22;62291;47.554;8.504;2023-04-03T04:16:47;4.60;99.90
73939;DHT22;62291;47.554;8.504;2023-04-03T04:19:13;4.60;99.90
73939;DHT22;62291;47.554;8.504;2023-04-03T04:21:38;4.50;99.90
73939;DHT22;62291;47.554;8.504;2023-04-03T04:24:04;4.50;99.90
73939;DHT22;62291;47.554;8.504;2023-04-03T04:26:30;4.40;99.90
73939;DHT22;62291;47.554;8.504;2023-04-03T04:28:56;4.30;99.90
73939;DHT22;62291;47.554;8.504;2023-04-03T04:31:21;4.30;99.90
73939;DHT22;62291;47.554;8.504;2023-04-03T04:33:47;4.20;99.90
73939;DHT22;62291;47.554;8.504;2023-04-03T04:36:12;4.20;99.90
73939;DHT22;62291;47.554;8.504;2023-04-03T04:38:40;4.30;99.90
73939;DHT22;62291;47.554;8.504;2023-04-03T04:41:06;4.30;99.90
73939;DHT22;62291;47.554;8.504;2023-04-03T04:43:31;4.20;99.90
73939;DHT22;62291;47.554;8.504;2023-04-03T04:46:04;4.20;99.90
73939;DHT22;62291;47.554;8.504;2023-04-03T04:48:29;4.20;99.90
73939;DHT22;62291;47.554;8.504;2023-04-03T04:50:55;4.20;99.90
73939;DHT22;62291;47.554;8.504;2023-04-03T04:53:21;4.20;99.90
73939;DHT22;62291;47.554;8.504;2023-04-03T04:55:46;4.20;99.90
73939;DHT22;62291;47.554;8.504;2023-04-03T04:58:12;4.20;99.90
73939;DHT22;62291;47.554;8.504;2023-04-03T05:00:37;4.20;99.90
73939;DHT22;62291;47.554;8.504;2023-04-03T05:03:03;4.30;99.90
73939;DHT22;62291;47.554;8.504;2023-04-03T05:05:28;4.20;99.90
73939;DHT22;62291;47.554;8.504;2023-04-03T05:07:54;4.20;99.90
73939;DHT22;62291;47.554;8.504;2023-04-03T05:10:19;4.20;99.90
73939;DHT22;62291;47.554;8.504;2023-04-03T05:12:45;4.30;99.90
73939;DHT22;62291;47.554;8.504;2023-04-03T05:15:11;4.20;99.90
73939;DHT22;62291;47.554;8.504;2023-04-03T05:17:36;4.20;99.90
73939;DHT22;62291;47.554;8.504;2023-04-03T05:20:02;4.30;99.90
73939;DHT22;62291;47.554;8.504;2023-04-03T05:22:29;4.30;99.90
73939;DHT22;62291;47.554;8.504;2023-04-03T05:24:54;4.20;99.90
73939;DHT22;62291;47.554;8.504;2023-04-03T05:27:20;4.20;99.90
73939;DHT22;62291;47.554;8.504;2023-04-03T05:29:45;4.20;99.90
73939;DHT22;62291;47.554;8.504;2023-04-03T05:32:11;4.20;99.90
73939;DHT22;62291;47.554;8.504;2023-04-03T05:34:36;4.30;99.90
73939;DHT22;62291;47.554;8.504;2023-04-03T05:37:02;4.30;99.90
73939;DHT22;62291;47.554;8.504;2023-04-03T05:39:29;4.20;99.90
73939;DHT22;62291;47.554;8.504;2023-04-03T05:41:56;4.10;99.90
73939;DHT22;62291;47.554;8.504;2023-04-03T05:44:22;4.10;99.90
73939;DHT22;62291;47.554;8.504;2023-04-03T05:46:48;4.10;99.90
73939;DHT22;62291;47.554;8.504;2023-04-03T05:49:13;4.00;99.90
73939;DHT22;62291;47.554;8.504;2023-04-03T05:51:39;4.00;99.90
73939;DHT22;62291;47.554;8.504;2023-04-03T05:54:09;3.90;99.90
73939;DHT22;62291;47.554;8.504;2023-04-03T05:56:37;3.80;99.90
73939;DHT22;62291;47.554;8.504;2023-04-03T05:59:03;3.70;99.90
73939;DHT22;62291;47.554;8.504;2023-04-03T06:01:28;3.70;99.90
73939;DHT22;62291;47.554;8.504;2023-04-03T06:03:54;3.70;99.90
73939;DHT22;62291;47.554;8.504;2023-04-03T06:06:19;3.70;99.90
73939;DHT22;62291;47.554;8.504;2023-04-03T06:08:47;3.70;99.90
73939;DHT22;62291;47.554;8.504;2023-04-03T06:11:12;3.70;99.90
73939;DHT22;62291;47.554;8.504;2023-04-03T06:13:38;3.70;99.90
73939;DHT22;62291;47.554;8.504;2023-04-03T06:16:04;3.70;99.90
73939;DHT22;62291;47.554;8.504;2023-04-03T06:18:30;3.60;99.90
73939;DHT22;62291;47.554;8.504;2023-04-03T06:20:56;3.70;99.90
73939;DHT22;62291;47.554;8.504;2023-04-03T06:23:23;3.70;99.90
73939;DHT22;62291;47.554;8.504;2023-04-03T06:25:48;3.70;99.90
73939;DHT22;62291;47.554;8.504;2023-04-03T06:28:14;3.80;99.90
73939;DHT22;62291;47.554;8.504;2023-04-03T06:30:40;3.90;99.90
73939;DHT22;62291;47.554;8.504;2023-04-03T06:33:06;3.90;99.90
73939;DHT22;62291;47.554;8.504;2023-04-03T06:35:31;3.90;99.90
73939;DHT22;62291;47.554;8.504;2023-04-03T06:37:57;4.00;99.90
73939;DHT22;62291;47.554;8.504;2023-04-03T06:40:23;3.90;99.90
73939;DHT22;62291;47.554;8.504;2023-04-03T06:42:49;3.90;99.90
73939;DHT22;62291;47.554;8.504;2023-04-03T06:45:14;3.90;99.90
73939;DHT22;62291;47.554;8.504;2023-04-03T06:47:40;4.10;99.90
73939;DHT22;62291;47.554;8.504;2023-04-03T06:50:06;4.10;99.90
73939;DHT22;62291;47.554;8.504;2023-04-03T06:52:32;4.10;99.90
73939;DHT22;62291;47.554;8.504;2023-04-03T06:54:58;4.20;99.90
73939;DHT22;62291;47.554;8.504;2023-04-03T06:57:25;4.10;99.90
73939;DHT22;62291;47.554;8.504;2023-04-03T06:59:50;4.20;99.90
73939;DHT22;62291;47.554;8.504;2023-04-03T07:02:16;4.20;99.90
73939;DHT22;62291;47.554;8.504;2023-04-03T07:04:42;4.20;99.90
73939;DHT22;62291;47.554;8.504;2023-04-03T07:07:07;4.30;99.90
73939;DHT22;62291;47.554;8.504;2023-04-03T07:09:33;4.40;99.90
73939;DHT22;62291;47.554;8.504;2023-04-03T07:11:59;4.60;99.90
73939;DHT22;62291;47.554;8.504;2023-04-03T07:14:24;4.70;99.90
73939;DHT22;62291;47.554;8.504;2023-04-03T07:16:50;4.80;99.90
73939;DHT22;62291;47.554;8.504;2023-04-03T07:19:16;4.80;99.90
73939;DHT22;62291;47.554;8.504;2023-04-03T07:21:43;4.70;99.90
73939;DHT22;62291;47.554;8.504;2023-04-03T07:24:09;4.80;99.90
73939;DHT22;62291;47.554;8.504;2023-04-03T07:26:34;4.90;99.90
73939;DHT22;62291;47.554;8.504;2023-04-03T07:29:00;5.10;99.90
73939;DHT22;62291;47.554;8.504;2023-04-03T07:31:26;5.20;99.90
73939;DHT22;62291;47.554;8.504;2023-04-03T07:33:51;5.20;99.90
73939;DHT22;62291;47.554;8.504;2023-04-03T07:36:18;5.20;99.90
73939;DHT22;62291;47.554;8.504;2023-04-03T07:38:44;5.20;99.90
73939;DHT22;62291;47.554;8.504;2023-04-03T07:41:17;5.20;99.90
73939;DHT22;62291;47.554;8.504;2023-04-03T07:43:44;4.90;99.90
73939;DHT22;62291;47.554;8.504;2023-04-03T07:46:10;4.80;99.90
73939;DHT22;62291;47.554;8.504;2023-04-03T07:48:36;4.90;99.90
73939;DHT22;62291;47.554;8.504;2023-04-03T07:51:02;5.00;99.90
73939;DHT22;62291;47.554;8.504;2023-04-03T07:53:28;5.10;99.90
73939;DHT22;62291;47.554;8.504;2023-04-03T07:55:54;5.10;99.90
73939;DHT22;62291;47.554;8.504;2023-04-03T07:58:21;5.10;99.90
73939;DHT22;62291;47.554;8.504;2023-04-03T08:00:47;5.10;99.90
73939;DHT22;62291;47.554;8.504;2023-04-03T08:03:13;5.10;99.90
73939;DHT22;62291;47.554;8.504;2023-04-03T08:05:43;5.20;99.90
73939;DHT22;62291;47.554;8.504;2023-04-03T08:08:09;5.30;99.90
73939;DHT22;62291;47.554;8.504;2023-04-03T08:10:35;5.20;99.90
73939;DHT22;62291;47.554;8.504;2023-04-03T08:13:01;5.30;99.90
73939;DHT22;62291;47.554;8.504;2023-04-03T08:15:26;5.40;99.90
73939;DHT22;62291;47.554;8.504;2023-04-03T08:17:52;5.50;99.90
73939;DHT22;62291;47.554;8.504;2023-04-03T08:20:18;5.40;99.90
73939;DHT22;62291;47.554;8.504;2023-04-03T08:22:43;5.40;99.90
73939;DHT22;62291;47.554;8.504;2023-04-03T08:25:09;5.40;99.90
73939;DHT22;62291;47.554;8.504;2023-04-03T08:27:34;5.50;99.90
73939;DHT22;62291;47.554;8.504;2023-04-03T08:30:00;5.70;99.90
73939;DHT22;62291;47.554;8.504;2023-04-03T08:32:26;5.70;99.90
73939;DHT22;62291;47.554;8.504;2023-04-03T08:34:52;5.90;99.90
73939;DHT22;62291;47.554;8.504;2023-04-03T08:37:17;6.00;99.90
73939;DHT22;62291;47.554;8.504;2023-04-03T08:39:44;6.20;99.90
73939;DHT22;62291;47.554;8.504;2023-04-03T08:45:01;6.10;99.90
73939;DHT22;62291;47.554;8.504;2023-04-03T08:50:15;6.00;99.90
73939;DHT22;62291;47.554;8.504;2023-04-03T08:52:43;5.90;99.90
73939;DHT22;62291;47.554;8.504;2023-04-03T08:57:40;5.70;99.90
73939;DHT22;62291;47.554;8.504;2023-04-03T09:05:11;5.80;99.90
73939;DHT22;62291;47.554;8.504;2023-04-03T09:07:55;6.00;99.90
73939;DHT22;62291;47.554;8.504;2023-04-03T09:10:24;6.00;99.90
73939;DHT22;62291;47.554;8.504;2023-04-03T09:12:59;6.10;99.90
73939;DHT22;62291;47.554;8.504;2023-04-03T09:15:26;6.00;99.90
73939;DHT22;62291;47.554;8.504;2023-04-03T09:20:33;6.10;99.90
73939;DHT22;62291;47.554;8.504;2023-04-03T09:23:21;6.00;99.90
73939;DHT22;62291;47.554;8.504;2023-04-03T09:25:48;5.90;99.90
73939;DHT22;62291;47.554;8.504;2023-04-03T09:28:15;5.90;99.90
73939;DHT22;62291;47.554;8.504;2023-04-03T09:30:41;5.90;99.90
73939;DHT22;62291;47.554;8.504;2023-04-03T09:33:06;5.90;99.90
73939;DHT22;62291;47.554;8.504;2023-04-03T09:35:33;6.00;99.80
73939;DHT22;62291;47.554;8.504;2023-04-03T09:42:50;6.30;99.90
73939;DHT22;62291;47.554;8.504;2023-04-03T09:45:24;6.50;99.90
73939;DHT22;62291;47.554;8.504;2023-04-03T09:48:03;6.50;99.50
73939;DHT22;62291;47.554;8.504;2023-04-03T09:50:30;6.40;99.90
73939;DHT22;62291;47.554;8.504;2023-04-03T09:52:55;6.40;99.90
73939;DHT22;62291;47.554;8.504;2023-04-03T09:55:22;6.50;99.70
73939;DHT22;62291;47.554;8.504;2023-04-03T09:58:02;6.50;99.90
73939;DHT22;62291;47.554;8.504;2023-04-03T10:00:35;6.60;99.40
73939;DHT22;62291;47.554;8.504;2023-04-03T10:03:01;6.60;99.40
73939;DHT22;62291;47.554;8.504;2023-04-03T10:10:40;6.60;99.70
73939;DHT22;62291;47.554;8.504;2023-04-03T10:13:07;6.50;99.90
73939;DHT22;62291;47.554;8.504;2023-04-03T10:15:39;6.50;99.90
73939;DHT22;62291;47.554;8.504;2023-04-03T10:18:13;6.60;99.90
73939;DHT22;62291;47.554;8.504;2023-04-03T10:20:44;6.50;99.90
73939;DHT22;62291;47.554;8.504;2023-04-03T10:23:14;6.50;99.90
73939;DHT22;62291;47.554;8.504;2023-04-03T10:28:23;6.90;99.90
73939;DHT22;62291;47.554;8.504;2023-04-03T10:36:25;6.90;99.30
73939;DHT22;62291;47.554;8.504;2023-04-03T10:46:41;6.40;99.90
73939;DHT22;62291;47.554;8.504;2023-04-03T10:51:43;6.50;99.90
73939;DHT22;62291;47.554;8.504;2023-04-03T10:54:16;6.50;99.90
73939;DHT22;62291;47.554;8.504;2023-04-03T10:59:21;6.60;99.90
73939;DHT22;62291;47.554;8.504;2023-04-03T11:01:51;6.70;99.90
73939;DHT22;62291;47.554;8.504;2023-04-03T11:04:17;6.80;99.90
73939;DHT22;62291;47.554;8.504;2023-04-03T11:06:46;6.80;99.90
73939;DHT22;62291;47.554;8.504;2023-04-03T11:11:39;6.60;99.90
73939;DHT22;62291;47.554;8.504;2023-04-03T11:14:09;6.70;99.90
73939;DHT22;62291;47.554;8.504;2023-04-03T11:16:42;6.70;99.90
73939;DHT22;62291;47.554;8.504;2023-04-03T11:19:13;6.90;99.90
73939;DHT22;62291;47.554;8.504;2023-04-03T11:21:47;7.10;99.90
73939;DHT22;62291;47.554;8.504;2023-04-03T11:24:20;7.30;99.90
73939;DHT22;62291;47.554;8.504;2023-04-03T11:26:47;7.40;99.90
73939;DHT22;62291;47.554;8.504;2023-04-03T11:29:15;7.40;99.90
73939;DHT22;62291;47.554;8.504;2023-04-03T11:37:02;7.20;99.90
73939;DHT22;62291;47.554;8.504;2023-04-03T11:39:32;6.90;99.90
73939;DHT22;62291;47.554;8.504;2023-04-03T11:44:43;6.70;99.90
73939;DHT22;62291;47.554;8.504;2023-04-03T11:47:09;6.60;99.90
73939;DHT22;62291;47.554;8.504;2023-04-03T12:05:55;6.70;99.90
73939;DHT22;62291;47.554;8.504;2023-04-03T12:08:26;6.90;99.90
73939;DHT22;62291;47.554;8.504;2023-04-03T12:16:21;7.40;99.90
73939;DHT22;62291;47.554;8.504;2023-04-03T12:26:46;7.30;99.90
73939;DHT22;62291;47.554;8.504;2023-04-03T12:29:17;7.40;99.90
73939;DHT22;62291;47.554;8.504;2023-04-03T12:45:17;7.60;99.90
73939;DHT22;62291;47.554;8.504;2023-04-03T12:47:44;7.70;98.70
73939;DHT22;62291;47.554;8.504;2023-04-03T12:50:18;7.60;99.10
73939;DHT22;62291;47.554;8.504;2023-04-03T12:52:45;7.50;98.50
73939;DHT22;62291;47.554;8.504;2023-04-03T12:55:16;7.50;98.80
73939;DHT22;62291;47.554;8.504;2023-04-03T12:57:42;7.50;98.90
73939;DHT22;62291;47.554;8.504;2023-04-03T13:02:52;7.60;99.10
73939;DHT22;62291;47.554;8.504;2023-04-03T13:05:18;7.50;98.00
73939;DHT22;62291;47.554;8.504;2023-04-03T13:07:44;7.40;99.30
73939;DHT22;62291;47.554;8.504;2023-04-03T13:10:15;7.40;98.70
73939;DHT22;62291;47.554;8.504;2023-04-03T13:12:57;7.10;98.90
73939;DHT22;62291;47.554;8.504;2023-04-03T13:15:24;6.90;99.30
73939;DHT22;62291;47.554;8.504;2023-04-03T13:17:51;6.80;99.60
73939;DHT22;62291;47.554;8.504;2023-04-03T13:25:15;6.80;99.70
73939;DHT22;62291;47.554;8.504;2023-04-03T13:27:41;6.80;99.90
73939;DHT22;62291;47.554;8.504;2023-04-03T13:30:20;6.80;98.90
73939;DHT22;62291;47.554;8.504;2023-04-03T13:32:46;6.70;99.30
73939;DHT22;62291;47.554;8.504;2023-04-03T13:35:28;6.80;99.50
73939;DHT22;62291;47.554;8.504;2023-04-03T13:37:55;6.80;99.90
73939;DHT22;62291;47.554;8.504;2023-04-03T13:40:20;6.80;99.90
73939;DHT22;62291;47.554;8.504;2023-04-03T13:42:46;7.00;99.50
73939;DHT22;62291;47.554;8.504;2023-04-03T13:45:24;7.10;99.20
73939;DHT22;62291;47.554;8.504;2023-04-03T13:47:53;7.20;99.90
73939;DHT22;62291;47.554;8.504;2023-04-03T13:50:21;7.20;99.10
73939;DHT22;62291;47.554;8.504;2023-04-03T13:53:30;7.20;98.20
73939;DHT22;62291;47.554;8.504;2023-04-03T13:55:37;7.20;98.40
73939;DHT22;62291;47.554;8.504;2023-04-03T13:58:35;7.10;97.90
73939;DHT22;62291;47.554;8.504;2023-04-03T14:03:43;6.90;97.50
73939;DHT22;62291;47.554;8.504;2023-04-03T14:06:11;6.90;98.40
73939;DHT22;62291;47.554;8.504;2023-04-03T14:08:37;7.10;97.80
73939;DHT22;62291;47.554;8.504;2023-04-03T14:11:03;7.30;98.80
73939;DHT22;62291;47.554;8.504;2023-04-03T14:13:29;7.30;97.20
73939;DHT22;62291;47.554;8.504;2023-04-03T14:15:55;7.40;97.20
73939;DHT22;62291;47.554;8.504;2023-04-03T14:18:20;7.40;97.10
73939;DHT22;62291;47.554;8.504;2023-04-03T14:20:46;7.50;97.00
73939;DHT22;62291;47.554;8.504;2023-04-03T14:23:12;7.50;96.60
73939;DHT22;62291;47.554;8.504;2023-04-03T14:25:38;7.50;96.40
73939;DHT22;62291;47.554;8.504;2023-04-03T14:28:12;7.50;96.70
73939;DHT22;62291;47.554;8.504;2023-04-03T14:30:38;7.60;97.20
73939;DHT22;62291;47.554;8.504;2023-04-03T14:33:05;7.60;96.30
73939;DHT22;62291;47.554;8.504;2023-04-03T14:35:32;7.40;96.30
73939;DHT22;62291;47.554;8.504;2023-04-03T14:37:57;7.40;96.30
73939;DHT22;62291;47.554;8.504;2023-04-03T14:40:24;7.20;95.90
73939;DHT22;62291;47.554;8.504;2023-04-03T14:42:51;7.10;97.70
73939;DHT22;62291;47.554;8.504;2023-04-03T14:45:20;7.10;98.10
73939;DHT22;62291;47.554;8.504;2023-04-03T14:47:53;7.20;97.70
73939;DHT22;62291;47.554;8.504;2023-04-03T14:50:20;7.30;97.10
73939;DHT22;62291;47.554;8.504;2023-04-03T14:52:46;7.30;96.80
73939;DHT22;62291;47.554;8.504;2023-04-03T14:55:14;7.10;97.50
73939;DHT22;62291;47.554;8.504;2023-04-03T14:57:40;7.10;97.20
73939;DHT22;62291;47.554;8.504;2023-04-03T15:00:07;7.00;96.90
73939;DHT22;62291;47.554;8.504;2023-04-03T15:02:36;7.00;96.40
73939;DHT22;62291;47.554;8.504;2023-04-03T15:05:04;7.00;97.00
73939;DHT22;62291;47.554;8.504;2023-04-03T15:07:32;7.00;96.70
73939;DHT22;62291;47.554;8.504;2023-04-03T15:10:05;6.90;97.10
73939;DHT22;62291;47.554;8.504;2023-04-03T15:12:32;6.90;96.50
73939;DHT22;62291;47.554;8.504;2023-04-03T15:14:57;6.90;96.40
73939;DHT22;62291;47.554;8.504;2023-04-03T15:17:23;6.80;96.20
73939;DHT22;62291;47.554;8.504;2023-04-03T15:19:49;6.80;97.70
73939;DHT22;62291;47.554;8.504;2023-04-03T15:22:18;6.80;96.60
73939;DHT22;62291;47.554;8.504;2023-04-03T15:24:44;6.80;96.80
73939;DHT22;62291;47.554;8.504;2023-04-03T15:27:10;6.90;95.90
73939;DHT22;62291;47.554;8.504;2023-04-03T15:29:37;6.80;96.70
73939;DHT22;62291;47.554;8.504;2023-04-03T15:32:04;6.90;97.10
73939;DHT22;62291;47.554;8.504;2023-04-03T15:34:29;6.90;95.90
73939;DHT22;62291;47.554;8.504;2023-04-03T15:36:55;6.80;95.80
73939;DHT22;62291;47.554;8.504;2023-04-03T15:39:21;6.80;96.10
73939;DHT22;62291;47.554;8.504;2023-04-03T15:41:48;6.80;95.30
73939;DHT22;62291;47.554;8.504;2023-04-03T15:44:13;6.80;96.20
73939;DHT22;62291;47.554;8.504;2023-04-03T15:46:42;6.80;96.00
73939;DHT22;62291;47.554;8.504;2023-04-03T15:49:08;6.70;94.90
73939;DHT22;62291;47.554;8.504;2023-04-03T15:51:34;6.70;94.90
73939;DHT22;62291;47.554;8.504;2023-04-03T15:53:59;6.70;95.00
73939;DHT22;62291;47.554;8.504;2023-04-03T15:56:25;6.60;97.10
73939;DHT22;62291;47.554;8.504;2023-04-03T15:58:50;6.60;95.20
73939;DHT22;62291;47.554;8.504;2023-04-03T16:01:16;6.60;96.40
73939;DHT22;62291;47.554;8.504;2023-04-03T16:03:42;6.60;95.70
73939;DHT22;62291;47.554;8.504;2023-04-03T16:06:16;6.60;95.70
73939;DHT22;62291;47.554;8.504;2023-04-03T16:08:44;6.60;95.20
73939;DHT22;62291;47.554;8.504;2023-04-03T16:11:11;6.60;95.60
73939;DHT22;62291;47.554;8.504;2023-04-03T16:13:37;6.60;95.10
73939;DHT22;62291;47.554;8.504;2023-04-03T16:16:02;6.50;95.50
73939;DHT22;62291;47.554;8.504;2023-04-03T16:18:28;6.60;96.20
73939;DHT22;62291;47.554;8.504;2023-04-03T16:20:54;6.60;96.00
73939;DHT22;62291;47.554;8.504;2023-04-03T16:23:20;6.60;95.10
73939;DHT22;62291;47.554;8.504;2023-04-03T16:25:46;6.60;95.20
73939;DHT22;62291;47.554;8.504;2023-04-03T16:28:12;6.70;95.70
73939;DHT22;62291;47.554;8.504;2023-04-03T16:30:39;6.70;95.40
73939;DHT22;62291;47.554;8.504;2023-04-03T16:33:05;6.70;96.80
73939;DHT22;62291;47.554;8.504;2023-04-03T16:35:31;6.60;95.60
73939;DHT22;62291;47.554;8.504;2023-04-03T16:37:56;6.50;95.60
73939;DHT22;62291;47.554;8.504;2023-04-03T16:40:22;6.40;95.70
73939;DHT22;62291;47.554;8.504;2023-04-03T16:42:47;6.30;95.50
73939;DHT22;62291;47.554;8.504;2023-04-03T16:45:13;6.20;95.60
73939;DHT22;62291;47.554;8.504;2023-04-03T16:47:38;6.30;96.10
73939;DHT22;62291;47.554;8.504;2023-04-03T16:50:04;6.20;95.90
73939;DHT22;62291;47.554;8.504;2023-04-03T16:52:30;6.20;95.60
73939;DHT22;62291;47.554;8.504;2023-04-03T16:54:55;6.20;96.00
73939;DHT22;62291;47.554;8.504;2023-04-03T16:57:23;6.10;96.20
73939;DHT22;62291;47.554;8.504;2023-04-03T16:59:52;6.10;96.50
73939;DHT22;62291;47.554;8.504;2023-04-03T17:02:18;6.10;96.60
73939;DHT22;62291;47.554;8.504;2023-04-03T17:04:43;6.10;97.20
73939;DHT22;62291;47.554;8.504;2023-04-03T17:07:09;6.10;97.10
73939;DHT22;62291;47.554;8.504;2023-04-03T17:09:34;6.10;96.90
73939;DHT22;62291;47.554;8.504;2023-04-03T17:12:00;6.10;96.50
73939;DHT22;62291;47.554;8.504;2023-04-03T17:14:26;6.10;97.10
73939;DHT22;62291;47.554;8.504;2023-04-03T17:16:51;6.10;97.10
73939;DHT22;62291;47.554;8.504;2023-04-03T17:19:17;6.10;97.30
73939;DHT22;62291;47.554;8.504;2023-04-03T17:21:43;6.00;96.70
73939;DHT22;62291;47.554;8.504;2023-04-03T17:24:08;6.00;97.30
73939;DHT22;62291;47.554;8.504;2023-04-03T17:26:38;5.90;96.90
73939;DHT22;62291;47.554;8.504;2023-04-03T17:29:03;5.90;97.30
73939;DHT22;62291;47.554;8.504;2023-04-03T17:31:29;5.90;98.00
73939;DHT22;62291;47.554;8.504;2023-04-03T17:34:03;5.90;97.50
73939;DHT22;62291;47.554;8.504;2023-04-03T17:36:29;5.80;97.40
73939;DHT22;62291;47.554;8.504;2023-04-03T17:38:55;5.80;96.70